Time;durP1;ratioP1;P1;durP2;ratioP2;P2;SDS_P1;SDS_P2;PMS_P1;PMS_P2;Temp;Humidity;BMP_temperature;BMP_pressure;BME280_temperature;BME280_humidity;BME280_pressure;Samples;Min_cycle;Max_cycle;Signal;HPM_P1;HPM_P2
2021/01/25 00:00:16;;;;;;;12.63;8.20;;;;;;;-0.34;86.92;96410.91;4969803;28;20219;-80
2021/01/25 00:02:43;;;;;;;10.13;6.80;;;;;;;-0.36;86.51;96407.53;4990060;28;20252;-79
2021/01/25 00:05:10;;;;;;;11.67;7.13;;;;;;;-0.41;86.32;96397.38;4988396;28;20216;-80
2021/01/25 00:07:37;;;;;;;10.70;6.40;;;;;;;-0.37;86.95;96402.44;4988310;28;20222;-79
2021/01/25 00:10:05;;;;;;;11.57;6.77;;;;;;;-0.36;86.66;96402.41;4987903;28;20672;-80
2021/01/25 00:12:31;;;;;;;11.40;6.70;;;;;;;-0.35;86.55;96398.13;4987865;28;20253;-79
2021/01/25 00:14:57;;;;;;;9.43;6.80;;;;;;;-0.35;86.86;96408.38;4989201;28;20588;-81
2021/01/25 00:17:24;;;;;;;12.27;6.60;;;;;;;-0.38;85.60;96411.03;4969193;28;20241;-79
2021/01/25 00:19:50;;;;;;;12.43;7.47;;;;;;;-0.45;85.95;96413.69;4986706;28;20235;-81
2021/01/25 00:22:16;;;;;;;11.97;6.73;;;;;;;-0.46;86.35;96414.59;4970494;28;20243;-80
2021/01/25 00:24:43;;;;;;;10.53;6.83;;;;;;;-0.45;86.70;96407.75;4989615;28;20239;-79
2021/01/25 00:27:09;;;;;;;11.87;7.20;;;;;;;-0.44;86.22;96406.84;4990901;28;20240;-80
2021/01/25 00:29:36;;;;;;;9.60;6.37;;;;;;;-0.46;86.37;96401.78;4993755;28;20222;-79
2021/01/25 00:32:02;;;;;;;10.33;6.30;;;;;;;-0.46;86.93;96406.03;4989971;28;20239;-79
2021/01/25 00:34:28;;;;;;;12.37;7.07;;;;;;;-0.48;86.59;96402.69;4993231;28;20219;-79
2021/01/25 00:36:55;;;;;;;13.27;7.80;;;;;;;-0.50;86.48;96405.28;4992210;28;20244;-79
2021/01/25 00:39:21;;;;;;;12.73;7.50;;;;;;;-0.48;86.76;96395.00;4993367;28;20211;-79
2021/01/25 00:41:48;;;;;;;11.23;6.80;;;;;;;-0.48;86.77;96397.56;4990017;28;20330;-79
2021/01/25 00:44:15;;;;;;;10.33;6.10;;;;;;;-0.47;87.11;96399.25;4990662;28;20705;-79
2021/01/25 00:46:42;;;;;;;11.23;6.93;;;;;;;-0.47;86.35;96399.25;4990880;28;20239;-78
2021/01/25 00:49:08;;;;;;;10.57;6.60;;;;;;;-0.50;86.36;96389.06;4992406;28;20234;-81
2021/01/25 00:51:34;;;;;;;12.53;6.73;;;;;;;-0.49;86.53;96390.78;4989868;28;20234;-80
2021/01/25 00:54:00;;;;;;;10.50;6.37;;;;;;;-0.50;86.21;96389.91;4993385;28;20240;-80
2021/01/25 00:56:27;;;;;;;9.37;6.50;;;;;;;-0.52;86.44;96383.16;4990722;28;20241;-78
2021/01/25 00:58:54;;;;;;;11.83;6.60;;;;;;;-0.52;86.53;96375.47;4973012;28;20231;-78
2021/01/25 01:01:20;;;;;;;9.93;6.00;;;;;;;-0.53;85.74;96369.50;4990719;28;20249;-79
2021/01/25 01:03:47;;;;;;;9.73;6.50;;;;;;;-0.54;86.04;96365.25;4968873;28;20978;-80
2021/01/25 01:06:13;;;;;;;10.40;6.20;;;;;;;-0.55;86.39;96376.38;4991761;28;20761;-79
2021/01/25 01:08:39;;;;;;;8.97;6.80;;;;;;;-0.55;85.72;96375.53;4990785;28;20224;-80
2021/01/25 01:11:06;;;;;;;8.83;6.10;;;;;;;-0.59;86.12;96372.19;4970318;28;20355;-79
2021/01/25 01:13:32;;;;;;;9.87;7.03;;;;;;;-0.61;85.99;96379.94;4990301;28;20290;-79
2021/01/25 01:15:59;;;;;;;12.53;6.83;;;;;;;-0.65;85.93;96375.75;4988732;28;20262;-81
2021/01/25 01:18:25;;;;;;;11.27;7.03;;;;;;;-0.69;85.58;96376.69;4990947;28;20222;-78
2021/01/25 01:20:51;;;;;;;11.00;6.60;;;;;;;-0.73;85.64;96372.53;4988537;28;20251;-78
2021/01/25 01:23:17;;;;;;;11.07;6.57;;;;;;;-0.79;85.58;96372.63;4989211;28;20251;-80
2021/01/25 01:25:44;;;;;;;11.20;7.03;;;;;;;-0.83;85.98;96378.72;4989481;28;20247;-78
2021/01/25 01:28:10;;;;;;;10.00;6.70;;;;;;;-0.86;85.38;96377.06;4991210;28;20212;-79
2021/01/25 01:30:36;;;;;;;11.40;6.50;;;;;;;-0.88;85.47;96377.97;4971290;28;20846;-79
2021/01/25 01:33:04;;;;;;;10.03;6.60;;;;;;;-0.90;85.69;96383.13;4989826;28;20236;-78
2021/01/25 01:35:30;;;;;;;10.60;6.73;;;;;;;-0.92;85.45;96384.03;4969687;28;20737;-79
2021/01/25 01:37:56;;;;;;;11.80;7.93;;;;;;;-0.97;85.17;96384.97;4991443;28;20255;-79
2021/01/25 01:40:22;;;;;;;11.83;7.83;;;;;;;-1.02;85.03;96381.66;4991626;28;20223;-79
2021/01/25 01:42:49;;;;;;;12.40;8.07;;;;;;;-1.07;85.26;96370.69;4990355;28;20239;-80
2021/01/25 01:45:15;;;;;;;12.27;7.33;;;;;;;-1.13;84.91;96358.03;4992557;28;20223;-81
2021/01/25 01:47:42;;;;;;;9.73;7.07;;;;;;;-1.16;84.97;96365.75;4989967;28;20354;-79
2021/01/25 01:50:10;;;;;;;10.93;6.90;;;;;;;-1.18;85.45;96367.50;4989669;28;20602;-79
2021/01/25 01:52:36;;;;;;;12.70;6.90;;;;;;;-1.19;85.29;96363.28;4989770;28;20233;-80
2021/01/25 01:55:03;;;;;;;10.57;7.07;;;;;;;-1.20;85.18;96371.81;4989393;28;20220;-79
2021/01/25 01:57:33;;;;;;;12.07;6.93;;;;;;;-1.24;85.06;96362.53;4992561;28;20962;-79
2021/01/25 01:59:59;;;;;;;12.47;7.07;;;;;;;-1.28;85.50;96354.06;4992429;28;20226;-79
2021/01/25 02:02:25;;;;;;;11.60;6.67;;;;;;;-1.28;85.33;96345.56;4971982;28;20243;-81
2021/01/25 02:04:51;;;;;;;10.73;6.67;;;;;;;-1.28;85.69;96337.91;4991092;28;20961;-78
2021/01/25 02:07:19;;;;;;;12.07;6.77;;;;;;;-1.29;85.57;96341.31;4973685;28;20768;-80
2021/01/25 02:09:47;;;;;;;11.20;6.60;;;;;;;-1.31;85.34;96340.50;4990920;28;20257;-79
2021/01/25 02:12:13;;;;;;;9.70;6.47;;;;;;;-1.34;85.52;96346.53;4989214;28;20266;-79
2021/01/25 02:14:40;;;;;;;12.63;7.03;;;;;;;-1.37;85.34;96344.88;4990412;28;20216;-78
2021/01/25 02:17:07;;;;;;;11.77;6.13;;;;;;;-1.37;85.19;96347.44;4990076;28;20243;-79
2021/01/25 02:19:37;;;;;;;11.77;6.60;;;;;;;-1.45;85.06;96341.63;4989748;28;20581;-79
2021/01/25 02:22:13;;;;;;;11.10;6.63;;;;;;;-1.49;84.82;96345.13;4987848;28;20759;-80
2021/01/25 02:24:43;;;;;;;12.27;6.90;;;;;;;-1.51;84.91;96344.28;4991809;28;20246;-80
2021/01/25 02:27:32;;;;;;;9.23;5.93;;;;;;;-1.57;84.50;96344.44;4988418;28;20246;-79
2021/01/25 02:29:59;;;;;;;11.87;6.07;;;;;;;-1.59;84.67;96344.44;4990411;28;20216;-79
2021/01/25 02:32:26;;;;;;;10.13;6.10;;;;;;;-1.61;85.33;96355.59;4988423;28;20242;-79
2021/01/25 02:34:53;;;;;;;10.30;6.20;;;;;;;-1.64;85.12;96341.13;4990094;28;20267;-79
2021/01/25 02:37:20;;;;;;;10.17;5.67;;;;;;;-1.65;85.25;96348.84;4991113;28;20244;-79
2021/01/25 02:39:47;;;;;;;11.13;5.90;;;;;;;-1.67;85.31;96355.69;4989295;28;20211;-79
2021/01/25 02:42:14;;;;;;;10.10;5.90;;;;;;;-1.72;85.04;96358.34;4968819;28;20294;-79
2021/01/25 02:44:41;;;;;;;10.63;6.27;;;;;;;-1.78;84.41;96351.63;4989601;28;20251;-80
2021/01/25 02:47:08;;;;;;;10.17;5.60;;;;;;;-1.80;85.02;96347.41;4985746;28;20247;-80
2021/01/25 02:49:35;;;;;;;8.53;5.77;;;;;;;-1.84;84.79;96344.09;4989141;28;20222;-81
2021/01/25 02:52:04;;;;;;;9.73;5.70;;;;;;;-1.86;84.87;96348.38;4987034;28;20239;-81
2021/01/25 02:54:30;;;;;;;11.67;6.37;;;;;;;-1.91;84.63;96352.75;4989857;28;20434;-79
2021/01/25 02:56:57;;;;;;;9.33;5.60;;;;;;;-1.92;84.73;96345.09;4987476;28;20239;-79
2021/01/25 02:59:23;;;;;;;10.17;5.67;;;;;;;-1.95;84.90;96351.97;4990430;28;20284;-80
2021/01/25 03:01:51;;;;;;;8.80;5.60;;;;;;;-1.96;84.88;96344.31;4988525;28;20334;-79
2021/01/25 03:04:18;;;;;;;9.67;5.33;;;;;;;-1.99;84.34;96336.69;4991100;28;20247;-80
2021/01/25 03:06:44;;;;;;;10.97;5.77;;;;;;;-2.01;84.37;96341.81;4989537;28;20282;-79
2021/01/25 03:09:10;;;;;;;9.27;5.67;;;;;;;-2.02;84.07;96339.28;4990231;28;20242;-79
2021/01/25 03:11:38;;;;;;;8.93;5.77;;;;;;;-2.06;84.05;96332.56;4968502;28;20239;-79
2021/01/25 03:14:09;;;;;;;9.77;5.50;;;;;;;-2.11;83.77;96329.25;4989985;28;20242;-80
2021/01/25 03:16:35;;;;;;;8.77;5.03;;;;;;;-2.16;84.36;96331.88;4989201;28;20243;-80
2021/01/25 03:19:03;;;;;;;9.73;5.50;;;;;;;-2.22;84.35;96327.72;4986208;28;20224;-79
2021/01/25 03:21:29;;;;;;;7.97;4.93;;;;;;;-2.24;84.21;96328.59;4987650;28;20239;-79
2021/01/25 03:23:55;;;;;;;8.37;5.07;;;;;;;-2.28;83.58;96332.94;4987239;28;20248;-80
2021/01/25 03:26:22;;;;;;;7.07;4.70;;;;;;;-2.34;83.71;96338.16;4970227;28;20249;-79
2021/01/25 03:28:48;;;;;;;8.67;5.53;;;;;;;-2.39;84.39;96328.03;4989495;28;20219;-79
2021/01/25 03:31:14;;;;;;;9.73;5.40;;;;;;;-2.37;83.86;96330.53;4986718;28;20289;-79
2021/01/25 03:33:40;;;;;;;7.70;4.97;;;;;;;-2.40;84.08;96333.16;4988503;28;20232;-79
2021/01/25 03:36:07;;;;;;;12.20;6.37;;;;;;;-2.44;84.09;96322.16;4985550;28;20236;-79
2021/01/25 03:38:34;;;;;;;9.20;4.93;;;;;;;-2.43;83.98;96322.97;4988829;28;20220;-79
2021/01/25 03:41:00;;;;;;;7.93;5.30;;;;;;;-2.43;84.16;96322.97;4986386;28;20247;-79
2021/01/25 03:43:26;;;;;;;10.53;5.73;;;;;;;-2.43;83.58;96317.88;4984489;28;20240;-79
2021/01/25 03:45:53;;;;;;;7.37;4.40;;;;;;;-2.44;83.96;96321.31;4982705;28;20744;-80
2021/01/25 03:48:19;;;;;;;7.67;5.17;;;;;;;-2.45;84.10;96320.44;4987865;28;20225;-80
2021/01/25 03:50:45;;;;;;;7.40;4.70;;;;;;;-2.47;83.88;96322.19;4986638;28;20239;-81
2021/01/25 03:53:12;;;;;;;7.13;4.70;;;;;;;-2.52;83.23;96327.38;4986697;28;20227;-79
2021/01/25 03:55:38;;;;;;;8.13;4.47;;;;;;;-2.55;83.53;96329.16;4986264;28;20266;-81
2021/01/25 03:58:05;;;;;;;7.33;4.30;;;;;;;-2.61;83.52;96335.19;4984706;28;20307;-80
2021/01/25 04:00:31;;;;;;;7.63;4.20;;;;;;;-2.63;83.81;96331.81;4984877;28;21038;-79
2021/01/25 04:02:57;;;;;;;6.17;4.40;;;;;;;-2.65;83.03;96327.59;4963016;28;20677;-81
2021/01/25 04:05:24;;;;;;;9.53;4.20;;;;;;;-2.67;84.01;96327.59;4987795;28;20231;-80
2021/01/25 04:07:50;;;;;;;7.50;4.83;;;;;;;-2.70;83.91;96325.13;4986970;28;20228;-80
2021/01/25 04:10:17;;;;;;;5.93;4.37;;;;;;;-2.73;83.80;96325.16;4987183;28;20276;-79
2021/01/25 04:12:43;;;;;;;9.73;4.83;;;;;;;-2.74;83.31;96333.66;4988065;28;20326;-79
2021/01/25 04:15:10;;;;;;;11.40;5.17;;;;;;;-2.72;83.38;96329.38;4967537;28;20226;-80
2021/01/25 04:17:38;;;;;;;8.50;4.93;;;;;;;-2.72;83.39;96337.91;4986515;28;20222;-80
2021/01/25 04:20:05;;;;;;;7.33;4.60;;;;;;;-2.74;83.40;96343.88;4988961;28;20212;-79
2021/01/25 04:22:32;;;;;;;8.10;4.47;;;;;;;-2.77;83.84;96338.84;5007356;28;20281;-80
2021/01/25 04:24:58;;;;;;;8.80;5.03;;;;;;;-2.78;82.81;96332.03;5004866;28;20295;-79
2021/01/25 04:27:25;;;;;;;9.43;4.87;;;;;;;-2.81;83.17;96332.06;4986083;28;20751;-79
2021/01/25 04:29:51;;;;;;;8.63;5.20;;;;;;;-2.86;83.12;96334.72;4987606;28;20226;-79
2021/01/25 04:32:18;;;;;;;6.63;4.47;;;;;;;-2.89;83.02;96331.38;5005118;28;20246;-79
2021/01/25 04:34:44;;;;;;;8.60;4.83;;;;;;;-2.88;83.27;96335.63;5003293;28;20211;-78
2021/01/25 04:37:11;;;;;;;9.43;4.97;;;;;;;-2.88;83.34;96335.63;5003983;28;20831;-78
2021/01/25 04:39:37;;;;;;;8.40;5.40;;;;;;;-2.86;83.23;96336.44;5004661;28;20206;-80
2021/01/25 04:42:04;;;;;;;8.00;5.37;;;;;;;-2.84;83.05;96327.03;5001087;28;20240;-80
2021/01/25 04:44:32;;;;;;;10.87;5.63;;;;;;;-2.84;82.70;96327.03;5004492;28;20284;-80
2021/01/25 04:46:59;;;;;;;11.40;6.00;;;;;;;-2.87;83.02;96327.06;5003440;28;20970;-79
2021/01/25 04:49:26;;;;;;;10.20;5.13;;;;;;;-2.86;83.51;96323.66;5001489;28;20213;-80
2021/01/25 04:51:53;;;;;;;9.33;5.47;;;;;;;-2.82;83.19;96325.31;5000543;28;20235;-79
2021/01/25 04:54:20;;;;;;;9.17;5.97;;;;;;;-2.78;83.89;96326.94;5005481;28;20364;-79
2021/01/25 04:56:46;;;;;;;10.30;5.77;;;;;;;-2.79;83.23;96335.47;5004329;28;20246;-79
2021/01/25 04:59:13;;;;;;;10.13;5.23;;;;;;;-2.76;84.42;96337.97;5004905;28;20218;-79
2021/01/25 05:01:40;;;;;;;8.90;4.90;;;;;;;-2.74;83.99;96331.13;5004560;28;20250;-79
2021/01/25 06:08:52;;;;;;;8.57;5.30;;;;;;;-1.76;84.04;96383.13;4474130;22;20285;-80
2021/01/25 06:11:20;;;;;;;7.33;4.97;;;;;;;-1.75;84.29;96384.81;4990017;28;20246;-79
2021/01/25 06:13:54;;;;;;;8.73;5.00;;;;;;;-1.70;84.69;96387.28;4988552;28;20243;-79
2021/01/25 06:16:22;;;;;;;9.43;5.07;;;;;;;-1.67;84.04;96397.44;4986582;28;20236;-79
2021/01/25 06:18:48;;;;;;;8.87;5.03;;;;;;;-1.61;84.56;96404.16;4986794;28;20224;-81
2021/01/25 06:21:18;;;;;;;9.50;5.23;;;;;;;-1.56;84.47;96395.53;4986057;28;20244;-79
2021/01/25 06:23:45;;;;;;;8.80;5.37;;;;;;;-1.52;84.08;96401.44;4987809;28;20267;-79
2021/01/25 06:26:14;;;;;;;11.87;5.73;;;;;;;-1.48;84.59;96402.22;4984166;28;20244;-80
2021/01/25 06:28:42;;;;;;;8.73;5.17;;;;;;;-1.53;84.02;96396.34;4986853;28;20220;-79
2021/01/25 06:31:08;;;;;;;8.80;5.10;;;;;;;-1.50;84.68;96398.84;4986593;28;20240;-82
2021/01/25 06:33:37;;;;;;;9.60;6.10;;;;;;;-1.44;84.86;96399.56;4988455;28;20234;-80
2021/01/25 06:36:07;;;;;;;10.23;6.03;;;;;;;-1.41;84.47;96401.25;4985333;28;20243;-81
2021/01/25 06:38:34;;;;;;;9.30;5.27;;;;;;;-1.39;84.97;96402.88;4988787;28;20307;-81
2021/01/25 06:41:09;;;;;;;10.27;5.57;;;;;;;-1.36;85.05;96407.94;4984186;28;20312;-80
2021/01/25 06:43:39;;;;;;;8.53;5.40;;;;;;;-1.31;84.48;96409.56;4986669;28;20246;-81
2021/01/25 06:46:06;;;;;;;10.10;5.80;;;;;;;-1.31;84.70;96404.44;4985147;28;20240;-81
2021/01/25 06:48:34;;;;;;;8.30;5.37;;;;;;;-1.30;85.25;96385.69;4986752;28;20320;-80
2021/01/25 06:51:01;;;;;;;9.70;5.33;;;;;;;-1.28;85.43;96389.06;4985270;28;20326;-80
2021/01/25 06:53:28;;;;;;;9.23;5.37;;;;;;;-1.26;85.28;96388.13;4982691;28;20275;-80
2021/01/25 06:55:59;;;;;;;8.13;5.13;;;;;;;-1.23;84.93;96397.44;4986213;28;20232;-81
2021/01/25 06:58:28;;;;;;;7.50;4.63;;;;;;;-1.21;84.78;96395.72;4982666;28;20220;-82
2021/01/25 07:00:55;;;;;;;7.57;5.10;;;;;;;-1.21;84.92;96398.28;4986197;28;20244;-81
2021/01/25 07:03:22;;;;;;;7.93;4.43;;;;;;;-1.17;85.07;96397.34;4987405;28;20275;-81
2021/01/25 07:05:50;;;;;;;8.40;4.50;;;;;;;-1.14;84.79;96396.44;4984871;28;20297;-80
2021/01/25 07:08:21;;;;;;;9.77;5.10;;;;;;;-1.14;85.03;96394.72;4987788;28;20255;-80
2021/01/25 07:10:54;;;;;;;8.43;4.60;;;;;;;-1.16;84.61;96404.13;4981548;28;20938;-80
2021/01/25 07:13:22;;;;;;;7.70;4.73;;;;;;;-1.17;84.77;96402.47;4987665;28;20240;-80
2021/01/25 07:15:49;;;;;;;5.63;3.77;;;;;;;-1.17;84.77;96403.28;4983857;28;21105;-80
2021/01/25 07:18:16;;;;;;;8.30;4.93;;;;;;;-1.15;85.21;96405.81;4986957;28;20216;-80
2021/01/25 07:20:47;;;;;;;8.90;4.87;;;;;;;-1.14;84.68;96407.50;4984605;28;20248;-80
2021/01/25 07:23:16;;;;;;;8.40;4.70;;;;;;;-1.10;85.26;96416.81;4986513;28;20236;-81
2021/01/25 07:25:42;;;;;;;9.07;4.73;;;;;;;-1.05;85.45;96421.81;4988174;28;20247;-80
2021/01/25 07:28:09;;;;;;;9.27;4.90;;;;;;;-1.00;85.65;96418.31;4985656;28;20224;-81
2021/01/25 07:30:35;;;;;;;10.20;5.03;;;;;;;-0.94;85.01;96419.06;4982286;28;20231;-81
2021/01/25 07:33:04;;;;;;;9.47;5.40;;;;;;;-0.90;85.48;96420.66;4986594;28;20296;-81
2021/01/25 07:35:32;;;;;;;8.07;5.40;;;;;;;-0.85;85.47;96423.97;4983760;28;20236;-81
2021/01/25 07:37:58;;;;;;;8.07;5.03;;;;;;;-0.79;85.20;96434.06;4986194;28;20227;-81
2021/01/25 07:40:25;;;;;;;9.73;5.30;;;;;;;-0.76;85.32;96436.59;4984865;28;20219;-82
2021/01/25 07:42:52;;;;;;;8.73;5.13;;;;;;;-0.73;84.90;96443.38;4986193;28;20687;-81
2021/01/25 07:45:18;;;;;;;8.57;5.67;;;;;;;-0.71;85.52;96442.47;4984108;28;20250;-81
2021/01/25 07:47:45;;;;;;;8.30;5.13;;;;;;;-0.69;85.67;96443.25;4984979;28;20227;-80
2021/01/25 07:50:12;;;;;;;8.87;5.50;;;;;;;-0.65;85.04;96437.19;4985338;28;20227;-80
2021/01/25 07:52:39;;;;;;;10.90;6.30;;;;;;;-0.59;85.39;96442.19;4985303;28;20276;-81
2021/01/25 07:55:13;;;;;;;7.93;5.47;;;;;;;-0.55;85.39;96442.97;4984801;28;20719;-81
2021/01/25 07:57:40;;;;;;;7.50;4.90;;;;;;;-0.50;85.49;96442.84;4986093;28;20215;-81
2021/01/25 08:00:17;;;;;;;11.10;5.60;;;;;;;-0.50;84.34;96445.41;4983833;28;20220;-80
2021/01/25 08:02:46;;;;;;;10.00;6.20;;;;;;;-0.50;85.63;96443.69;4987530;28;20327;-82
2021/01/25 08:05:13;;;;;;;9.50;5.60;;;;;;;-0.48;85.25;96449.66;4985151;28;20239;-80
2021/01/25 08:07:42;;;;;;;9.27;5.70;;;;;;;-0.44;85.38;96450.41;4985662;28;20294;-81
2021/01/25 08:10:10;;;;;;;9.60;6.10;;;;;;;-0.45;85.54;96449.56;4984004;28;20226;-80
2021/01/25 08:12:36;;;;;;;10.77;6.30;;;;;;;-0.44;85.13;96450.41;4986963;28;20323;-81
2021/01/25 08:15:08;;;;;;;9.60;5.80;;;;;;;-0.43;85.11;96455.50;4982426;28;20222;-82
2021/01/25 08:17:36;;;;;;;9.57;6.17;;;;;;;-0.41;85.10;96455.47;4987816;28;20222;-82
2021/01/25 08:20:04;;;;;;;10.57;6.33;;;;;;;-0.40;85.04;96458.00;4984152;28;20278;-81
2021/01/25 08:22:35;;;;;;;10.90;6.07;;;;;;;-0.38;85.00;96457.13;4984427;28;20347;-82
2021/01/25 08:25:02;;;;;;;11.23;6.80;;;;;;;-0.35;85.68;96457.91;4984672;28;20242;-81
2021/01/25 08:27:30;;;;;;;9.67;5.27;;;;;;;-0.30;85.46;96457.78;4986177;28;20301;-80
2021/01/25 08:30:00;;;;;;;9.53;5.87;;;;;;;-0.31;85.44;96464.63;4985079;28;20705;-80
2021/01/25 08:32:31;;;;;;;9.37;6.47;;;;;;;-0.25;85.52;96456.81;4984865;28;20632;-80
2021/01/25 08:34:59;;;;;;;10.27;6.83;;;;;;;-0.17;85.97;96450.66;4987107;28;20211;-81
2021/01/25 08:37:26;;;;;;;11.13;6.70;;;;;;;-0.10;86.10;96458.16;4983999;28;20239;-82
2021/01/25 08:39:53;;;;;;;11.13;6.53;;;;;;;-0.06;86.34;96466.63;4986413;28;20243;-81
2021/01/25 08:42:21;;;;;;;11.00;6.03;;;;;;;0.02;85.96;96463.88;4965804;28;20349;-82
2021/01/25 08:44:49;;;;;;;8.60;5.97;;;;;;;0.07;86.31;96462.06;4986438;28;20227;-81
2021/01/25 08:47:18;;;;;;;11.23;6.53;;;;;;;0.12;86.55;96465.34;4989225;28;20330;-81
2021/01/25 08:49:46;;;;;;;8.63;6.00;;;;;;;0.15;86.49;96468.69;4990851;28;20366;-81
2021/01/25 08:52:27;;;;;;;10.07;6.40;;;;;;;0.16;85.96;96472.09;4986938;28;21197;-80
2021/01/25 08:55:06;;;;;;;7.23;5.03;;;;;;;0.21;86.11;96469.44;4989478;28;20216;-80
2021/01/25 08:57:34;;;;;;;7.57;5.50;;;;;;;0.16;86.67;96466.97;4988735;28;20254;-80
2021/01/25 09:00:09;;;;;;;7.27;5.17;;;;;;;0.25;86.66;96476.16;4989135;28;20295;-82
2021/01/25 09:02:35;;;;;;;8.53;5.30;;;;;;;0.29;86.56;96477.75;4988253;28;20251;-82
2021/01/25 09:05:02;;;;;;;10.40;6.17;;;;;;;0.34;86.62;96486.19;4969250;28;20246;-80
2021/01/25 09:07:29;;;;;;;10.13;5.97;;;;;;;0.38;86.96;96483.50;4988065;28;20882;-81
2021/01/25 09:09:55;;;;;;;9.13;5.60;;;;;;;0.34;85.98;96486.19;4986787;28;20231;-81
2021/01/25 09:12:21;;;;;;;11.00;5.50;;;;;;;0.37;86.53;96491.25;4986067;28;20271;-81
2021/01/25 09:14:48;;;;;;;10.37;6.43;;;;;;;0.44;87.16;96492.78;4987678;28;20306;-81
2021/01/25 09:17:14;;;;;;;9.47;6.27;;;;;;;0.50;86.76;96492.63;4984632;28;20293;-81
2021/01/25 09:19:41;;;;;;;6.80;4.97;;;;;;;0.52;86.34;96495.16;4970812;28;20314;-82
2021/01/25 09:22:10;;;;;;;9.57;6.27;;;;;;;0.57;86.74;96494.16;4986028;28;20274;-81
2021/01/25 09:24:38;;;;;;;6.67;5.37;;;;;;;0.64;86.81;96494.81;4987864;28;20367;-81
2021/01/25 09:27:04;;;;;;;9.93;5.87;;;;;;;0.65;86.72;96500.81;4986707;28;20589;-81
2021/01/25 09:29:30;;;;;;;8.07;5.43;;;;;;;0.64;86.83;96499.13;4986444;28;20216;-82
2021/01/25 09:31:57;;;;;;;7.97;5.07;;;;;;;0.65;86.48;96503.38;4984704;28;20558;-81
2021/01/25 09:34:24;;;;;;;8.60;5.40;;;;;;;0.68;86.35;96505.84;4987579;28;20237;-81
2021/01/25 09:36:50;;;;;;;8.20;5.70;;;;;;;0.75;86.52;96509.94;4987241;28;20283;-81
2021/01/25 09:39:18;;;;;;;7.70;5.30;;;;;;;0.78;86.44;96515.00;4971916;28;20311;-83
2021/01/25 09:41:46;;;;;;;6.83;5.30;;;;;;;0.86;86.62;96510.50;4985293;28;20242;-80
2021/01/25 09:44:13;;;;;;;9.27;4.83;;;;;;;0.94;86.91;96513.72;4989503;28;20239;-81
2021/01/25 09:46:41;;;;;;;6.57;4.67;;;;;;;1.05;87.17;96525.41;4987500;28;20318;-80
2021/01/25 09:49:08;;;;;;;6.83;4.67;;;;;;;1.11;87.37;96522.69;4971877;28;20679;-81
2021/01/25 09:51:34;;;;;;;7.27;4.57;;;;;;;1.16;86.44;96528.56;4987472;28;20241;-81
2021/01/25 09:54:00;;;;;;;8.73;5.10;;;;;;;1.19;86.00;96528.44;4984917;28;20944;-81
2021/01/25 09:56:27;;;;;;;10.47;4.87;;;;;;;1.29;86.49;96540.16;4982203;28;20246;-81
2021/01/25 09:58:54;;;;;;;7.67;5.00;;;;;;;1.39;86.43;96542.47;4987858;28;20254;-81
2021/01/25 10:01:21;;;;;;;7.90;4.80;;;;;;;1.47;86.66;96537.97;4986235;28;20250;-80
2021/01/25 10:03:47;;;;;;;8.67;5.00;;;;;;;1.54;86.40;96542.03;4989390;28;20309;-81
2021/01/25 10:06:13;;;;;;;7.43;4.60;;;;;;;1.58;86.15;96541.09;4985235;28;20729;-81
2021/01/25 10:08:40;;;;;;;8.27;4.57;;;;;;;1.63;86.23;96540.94;4987994;28;20227;-80
2021/01/25 10:11:07;;;;;;;9.53;5.40;;;;;;;1.71;86.18;96542.41;4987795;28;20794;-81
2021/01/25 10:13:34;;;;;;;6.67;4.20;;;;;;;1.72;85.75;96538.94;4987491;28;20236;-80
2021/01/25 10:16:00;;;;;;;6.43;4.27;;;;;;;1.80;85.96;96545.59;4988170;28;20246;-80
2021/01/25 10:18:27;;;;;;;7.50;4.00;;;;;;;1.81;85.84;96549.84;4986864;28;20223;-81
2021/01/25 10:20:53;;;;;;;6.43;3.90;;;;;;;1.83;85.41;96550.66;4985725;28;20240;-80
2021/01/25 10:23:20;;;;;;;6.10;3.30;;;;;;;1.82;85.13;96549.81;4988044;28;20343;-81
2021/01/25 10:25:46;;;;;;;6.33;3.23;;;;;;;1.87;85.37;96558.22;4980677;28;20247;-80
2021/01/25 10:28:13;;;;;;;8.07;3.60;;;;;;;1.86;85.35;96560.84;4985850;28;20899;-81
2021/01/25 10:30:40;;;;;;;8.17;3.13;;;;;;;1.89;85.86;96555.59;4969121;28;21064;-81
2021/01/25 10:33:07;;;;;;;5.27;3.30;;;;;;;1.85;85.28;96559.16;4984314;28;20236;-81
2021/01/25 10:35:33;;;;;;;6.87;3.07;;;;;;;1.83;85.68;96571.22;4968072;28;20243;-82
2021/01/25 10:38:01;;;;;;;6.57;3.50;;;;;;;1.81;85.34;96562.72;4952443;28;20277;-82
2021/01/25 10:40:27;;;;;;;8.83;3.73;;;;;;;1.83;85.88;96568.66;4983362;28;20239;-81
2021/01/25 10:42:53;;;;;;;6.70;3.30;;;;;;;1.86;85.91;96571.13;4969455;28;20736;-82
2021/01/25 10:45:20;;;;;;;6.27;3.40;;;;;;;1.88;85.79;96577.91;4985959;28;20239;-81
2021/01/25 10:47:47;;;;;;;7.33;3.90;;;;;;;1.94;85.95;96569.16;4968447;28;20688;-81
2021/01/25 10:50:13;;;;;;;6.67;4.27;;;;;;;2.02;86.31;96571.50;4983592;28;20222;-81
2021/01/25 10:52:40;;;;;;;4.87;3.77;;;;;;;2.08;86.25;96572.16;4986130;28;20986;-81
2021/01/25 10:55:08;;;;;;;8.33;4.20;;;;;;;2.18;86.22;96574.47;4984120;28;20275;-82
2021/01/25 10:57:34;;;;;;;10.40;4.97;;;;;;;2.23;86.08;96576.00;4986863;28;20223;-82
2021/01/25 11:00:01;;;;;;;7.97;4.50;;;;;;;2.28;85.93;96576.72;4985863;28;20211;-81
2021/01/25 11:02:27;;;;;;;8.60;4.47;;;;;;;2.35;86.08;96579.09;4984244;28;20240;-82
2021/01/25 11:04:55;;;;;;;6.60;3.90;;;;;;;2.41;85.59;96574.59;4986459;28;20244;-81
2021/01/25 11:07:21;;;;;;;7.03;4.23;;;;;;;2.49;85.83;96592.38;4983646;28;20239;-81
2021/01/25 11:09:48;;;;;;;5.97;3.90;;;;;;;2.56;85.77;96581.00;4987146;28;20227;-80
2021/01/25 11:12:14;;;;;;;5.07;3.70;;;;;;;2.58;85.29;96580.94;4984429;28;20248;-80
2021/01/25 11:14:40;;;;;;;5.33;3.50;;;;;;;2.59;85.43;96580.03;4986244;28;20216;-81
2021/01/25 11:17:07;;;;;;;6.13;3.53;;;;;;;2.67;85.42;96585.81;4984583;28;20239;-80
2021/01/25 11:19:33;;;;;;;7.17;3.43;;;;;;;2.73;85.74;96580.44;4952762;28;20693;-80
2021/01/25 11:22:00;;;;;;;6.60;3.20;;;;;;;2.83;85.95;96581.84;4966328;28;20235;-81
2021/01/25 11:24:27;;;;;;;5.10;2.80;;;;;;;2.89;85.16;96589.34;4981669;28;20889;-81
2021/01/25 11:26:53;;;;;;;4.93;3.00;;;;;;;2.91;85.28;96585.91;4984310;28;20729;-82
2021/01/25 11:29:21;;;;;;;3.03;2.10;;;;;;;2.94;85.52;96584.06;4986708;28;20219;-81
2021/01/25 11:31:47;;;;;;;4.83;2.90;;;;;;;2.95;84.93;96578.00;4985033;28;20304;-81
2021/01/25 11:34:13;;;;;;;3.97;2.70;;;;;;;2.86;83.96;96592.03;4984259;28;20267;-80
2021/01/25 11:36:39;;;;;;;4.63;2.87;;;;;;;2.83;84.77;96591.28;4984375;28;20249;-81
2021/01/25 11:39:07;;;;;;;4.30;2.50;;;;;;;2.80;84.53;96587.09;4984962;28;20318;-81
2021/01/25 11:41:33;;;;;;;4.17;2.70;;;;;;;2.79;84.97;96594.84;4984337;28;20779;-80
2021/01/25 11:43:59;;;;;;;4.87;2.97;;;;;;;2.65;83.57;96593.56;4986597;28;20253;-81
2021/01/25 11:46:26;;;;;;;4.23;2.50;;;;;;;2.55;84.00;96587.03;4967424;28;20332;-80
2021/01/25 11:48:52;;;;;;;3.87;2.50;;;;;;;2.47;84.27;96599.31;4986967;28;20710;-82
2021/01/25 11:51:18;;;;;;;8.07;3.67;;;;;;;2.48;84.89;96596.69;4983624;28;20239;-80
2021/01/25 11:53:45;;;;;;;3.77;2.97;;;;;;;2.50;84.86;96602.63;4986569;28;20294;-80
2021/01/25 11:56:12;;;;;;;4.00;2.77;;;;;;;2.50;85.07;96594.91;4983648;28;20248;-80
2021/01/25 11:58:38;;;;;;;4.93;2.77;;;;;;;2.59;85.66;96609.22;4983546;28;20229;-80
2021/01/25 12:01:04;;;;;;;4.53;2.83;;;;;;;2.64;85.25;96603.91;4985755;28;20262;-81
2021/01/25 12:03:31;;;;;;;6.60;3.10;;;;;;;2.61;85.47;96606.56;4985143;28;20729;-81
2021/01/25 12:05:57;;;;;;;6.60;3.50;;;;;;;2.57;85.40;96608.41;4984905;28;20251;-81
2021/01/25 12:08:24;;;;;;;4.87;3.17;;;;;;;2.55;85.63;96617.06;4986408;28;20277;-80
2021/01/25 12:10:50;;;;;;;6.03;3.10;;;;;;;2.53;85.13;96604.25;4985739;28;20611;-80
2021/01/25 12:13:18;;;;;;;4.37;3.00;;;;;;;2.48;84.72;96617.28;4986736;28;20329;-81
2021/01/25 12:15:44;;;;;;;3.27;2.80;;;;;;;2.46;84.95;96613.91;4983908;28;20239;-81
2021/01/25 12:18:10;;;;;;;6.27;4.03;;;;;;;2.47;85.30;96617.31;4984891;28;20220;-80
2021/01/25 12:20:37;;;;;;;3.50;2.67;;;;;;;2.49;85.45;96624.09;4989197;28;20613;-80
2021/01/25 12:23:03;;;;;;;6.13;3.63;;;;;;;2.60;86.21;96625.50;4987076;28;20248;-81
2021/01/25 12:25:29;;;;;;;4.73;3.20;;;;;;;2.71;86.36;96620.84;4987488;28;20239;-80
2021/01/25 12:27:56;;;;;;;4.60;2.97;;;;;;;2.75;86.35;96625.00;4988265;28;20223;-82
2021/01/25 12:30:24;;;;;;;4.27;3.00;;;;;;;2.66;84.95;96630.44;4972117;28;20226;-80
2021/01/25 12:32:51;;;;;;;3.93;3.10;;;;;;;2.66;85.62;96630.44;4989845;28;20262;-81
2021/01/25 12:35:18;;;;;;;7.37;3.93;;;;;;;2.67;85.49;96627.81;4989050;28;20231;-80
2021/01/25 12:37:45;;;;;;;5.17;3.43;;;;;;;2.66;84.88;96630.44;4990038;28;20335;-80